createdAt,value
2022-11-16T00:01:45.671Z,69.49
2022-11-16T00:04:12.666Z,69.24
2022-11-16T00:06:40.586Z,69.60
2022-11-16T00:09:23.085Z,69.32
2022-11-16T00:11:58.215Z,69.50
2022-11-16T00:14:28.102Z,69.48
2022-11-16T00:16:55.288Z,69.36
2022-11-16T00:19:23.004Z,69.46
2022-11-16T00:21:50.051Z,69.41
2022-11-16T00:24:19.162Z,69.14
2022-11-16T00:26:46.699Z,69.42
2022-11-16T00:29:21.615Z,69.72
2022-11-16T00:31:49.153Z,69.41
2022-11-16T00:34:16.780Z,69.46
2022-11-16T00:36:48.816Z,69.08
2022-11-16T00:39:17.071Z,69.36
2022-11-16T00:41:47.072Z,69.69
2022-11-16T00:44:14.763Z,69.42
2022-11-16T00:46:42.033Z,69.46
2022-11-16T00:49:09.779Z,69.27
2022-11-16T00:51:37.880Z,69.33
2022-11-16T00:54:07.421Z,69.29
2022-11-16T00:56:38.971Z,69.31
2022-11-16T00:59:07.228Z,69.43
2022-11-16T01:01:34.500Z,69.50
2022-11-16T01:04:01.756Z,69.06
2022-11-16T01:06:28.713Z,69.48
2022-11-16T01:08:55.727Z,69.50
2022-11-16T01:11:42.383Z,69.44
2022-11-16T01:14:10.800Z,69.66
2022-11-16T01:16:38.277Z,69.53
2022-11-16T01:19:06.064Z,69.37
2022-11-16T01:21:33.811Z,69.44
2022-11-16T01:24:00.832Z,69.17
2022-11-16T01:26:27.967Z,69.66
2022-11-16T01:28:55.014Z,69.27
2022-11-16T01:31:22.364Z,69.24
2022-11-16T01:33:51.479Z,68.93
2022-11-16T01:36:27.542Z,69.14
2022-11-16T01:38:57.036Z,69.51
2022-11-16T01:41:27.749Z,69.42
2022-11-16T01:44:02.094Z,69.10
2022-11-16T01:46:34.972Z,69.22
2022-11-16T01:49:17.085Z,69.31
2022-11-16T01:51:49.348Z,69.20
2022-11-16T01:54:16.880Z,69.14
2022-11-16T01:56:55.979Z,68.92
2022-11-16T01:59:33.463Z,69.06
2022-11-16T02:02:01.192Z,68.87
2022-11-16T02:04:29.263Z,68.95
2022-11-16T02:07:00.975Z,69.00
2022-11-16T02:09:57.294Z,69.02
2022-11-16T02:12:31.791Z,68.96
2022-11-16T02:15:17.638Z,69.08
2022-11-16T02:18:14.121Z,69.02
2022-11-16T02:21:09.638Z,69.03
2022-11-16T02:24:08.929Z,68.96
2022-11-16T02:26:44.840Z,69.02
2022-11-16T02:29:33.065Z,68.97
2022-11-16T02:32:06.237Z,68.81
2022-11-16T02:34:39.324Z,68.95
2022-11-16T02:37:11.470Z,68.88
2022-11-16T02:39:40.908Z,69.33
2022-11-16T02:42:13.621Z,69.15
2022-11-16T02:44:46.649Z,68.84
2022-11-16T02:47:21.999Z,69.28
2022-11-16T02:49:56.853Z,68.98
2022-11-16T02:52:25.544Z,69.06
2022-11-16T02:54:52.757Z,69.06
2022-11-16T02:57:38.079Z,69.25
2022-11-16T03:00:09.468Z,69.48
2022-11-16T03:02:56.435Z,68.88
2022-11-16T03:05:38.523Z,68.80
2022-11-16T03:08:16.814Z,68.73
2022-11-16T03:11:09.187Z,68.86
2022-11-16T03:13:37.397Z,68.76
2022-11-16T03:16:11.075Z,68.64
2022-11-16T03:18:40.760Z,68.62
2022-11-16T03:21:21.360Z,68.56
2022-11-16T03:23:48.812Z,68.66
2022-11-16T03:26:22.728Z,68.78
2022-11-16T03:29:00.386Z,68.69
2022-11-16T03:31:34.938Z,68.55
2022-11-16T03:34:11.021Z,68.79
2022-11-16T03:36:43.432Z,68.81
2022-11-16T03:39:23.855Z,68.73
2022-11-16T03:41:51.052Z,68.70
2022-11-16T03:44:21.309Z,68.90
2022-11-16T03:46:48.786Z,68.58
2022-11-16T03:49:20.443Z,68.87
2022-11-16T03:51:47.558Z,68.76
2022-11-16T03:54:15.835Z,68.65
2022-11-16T03:56:42.966Z,68.42
2022-11-16T03:59:09.987Z,68.33
2022-11-16T04:01:41.788Z,68.06
2022-11-16T04:04:33.384Z,68.42
2022-11-16T04:07:19.690Z,68.46
2022-11-16T04:10:05.667Z,68.50
2022-11-16T04:13:11.763Z,68.34
2022-11-16T04:15:58.948Z,68.44
2022-11-16T04:18:45.363Z,68.15
2022-11-16T04:21:49.515Z,68.26
2022-11-16T04:24:21.715Z,68.23
2022-11-16T04:27:15.848Z,68.53
2022-11-16T04:29:43.137Z,68.29
2022-11-16T04:32:33.395Z,68.12
2022-11-16T04:35:19.107Z,68.49
2022-11-16T04:37:49.298Z,68.16
2022-11-16T04:40:28.227Z,68.04
2022-11-16T04:43:01.050Z,68.33
2022-11-16T04:46:23.508Z,67.90
2022-11-16T04:48:50.492Z,68.37
2022-11-16T04:51:17.732Z,68.04
2022-11-16T04:53:44.950Z,68.18
2022-11-16T04:56:19.931Z,68.48
2022-11-16T04:58:47.357Z,68.36
2022-11-16T05:01:15.177Z,67.92
2022-11-16T05:03:42.856Z,68.28
2022-11-16T05:06:09.802Z,68.03
2022-11-16T05:08:36.945Z,68.05
2022-11-16T05:11:05.259Z,68.21
2022-11-16T05:13:32.974Z,68.42
2022-11-16T05:16:02.099Z,68.67
2022-11-16T05:18:29.386Z,68.10
2022-11-16T05:21:02.491Z,67.92
2022-11-16T05:23:53.543Z,68.03
2022-11-16T05:26:22.952Z,68.00
2022-11-16T05:28:51.380Z,68.22
2022-11-16T05:31:18.509Z,68.12
2022-11-16T05:33:45.958Z,68.24
2022-11-16T05:36:15.008Z,68.37
2022-11-16T05:38:42.276Z,68.40
2022-11-16T05:41:09.296Z,68.33
2022-11-16T05:43:36.452Z,68.15
2022-11-16T05:46:16.269Z,68.54
2022-11-16T05:48:44.010Z,68.44
2022-11-16T05:51:11.130Z,68.33
2022-11-16T05:53:38.993Z,68.78
2022-11-16T05:56:07.401Z,68.54
2022-11-16T05:58:38.052Z,68.73
2022-11-16T06:01:05.913Z,68.66
2022-11-16T06:03:33.341Z,68.35
2022-11-16T06:06:00.527Z,68.22
2022-11-16T06:08:30.050Z,68.38
2022-11-16T06:11:04.736Z,68.50
2022-11-16T06:13:34.200Z,67.83
2022-11-16T06:16:02.623Z,68.27
2022-11-16T06:18:31.886Z,67.83
2022-11-16T06:20:59.068Z,67.64
2022-11-16T06:23:26.843Z,68.00
2022-11-16T06:25:56.400Z,67.90
2022-11-16T06:28:27.363Z,68.31
2022-11-16T06:30:55.441Z,67.81
2022-11-16T06:33:24.287Z,68.25
2022-11-16T06:35:51.486Z,68.15
2022-11-16T06:38:23.481Z,67.92
2022-11-16T06:40:56.683Z,67.76
2022-11-16T06:43:26.922Z,67.51
2022-11-16T06:46:00.785Z,67.55
2022-11-16T06:48:27.827Z,67.79
2022-11-16T06:50:55.035Z,67.16
2022-11-16T06:53:28.787Z,67.38
2022-11-16T06:56:03.482Z,67.31
2022-11-16T06:58:32.967Z,67.92
2022-11-16T07:01:08.253Z,67.35
2022-11-16T07:03:38.016Z,67.56
2022-11-16T07:06:11.360Z,67.39
2022-11-16T07:08:40.525Z,67.11
2022-11-16T07:11:09.689Z,67.00
2022-11-16T07:13:38.204Z,66.93
2022-11-16T07:16:08.332Z,66.79
2022-11-16T07:18:37.659Z,66.38
2022-11-16T07:21:11.155Z,66.23
2022-11-16T07:23:39.794Z,66.42
2022-11-16T07:26:10.426Z,66.84
2022-11-16T07:28:48.347Z,66.36
2022-11-16T07:31:19.501Z,66.32
2022-11-16T07:33:46.945Z,65.98
2022-11-16T07:36:37.034Z,65.97
2022-11-16T07:39:04.201Z,66.14
2022-11-16T07:41:31.223Z,66.21
2022-11-16T07:44:12.130Z,65.78
2022-11-16T07:46:47.090Z,65.89
2022-11-16T07:49:17.394Z,65.96
2022-11-16T07:51:50.190Z,65.59
2022-11-16T07:54:31.443Z,66.02
2022-11-16T07:56:58.466Z,65.69
2022-11-16T07:59:25.901Z,65.75
2022-11-16T08:01:53.045Z,66.15
2022-11-16T08:04:20.060Z,66.01
2022-11-16T08:06:51.002Z,65.92
2022-11-16T08:09:19.797Z,65.93
2022-11-16T08:11:48.387Z,65.64
2022-11-16T08:14:15.986Z,65.81
2022-11-16T08:16:43.631Z,65.25
2022-11-16T08:19:13.762Z,65.36
2022-11-16T08:21:40.813Z,65.18
2022-11-16T08:24:08.195Z,64.90
2022-11-16T08:26:39.137Z,65.00
2022-11-16T08:29:11.755Z,64.80
2022-11-16T08:31:44.617Z,64.63
2022-11-16T08:34:14.315Z,64.77
2022-11-16T08:36:45.195Z,64.69
2022-11-16T08:39:13.448Z,64.93
2022-11-16T08:41:42.409Z,64.68
2022-11-16T08:44:10.955Z,64.62
2022-11-16T08:46:40.741Z,64.61
2022-11-16T08:49:16.711Z,64.33
2022-11-16T08:51:43.637Z,64.20
2022-11-16T08:54:10.890Z,63.85
2022-11-16T08:56:40.844Z,64.12
2022-11-16T08:59:09.598Z,64.28
2022-11-16T09:01:39.267Z,64.04
2022-11-16T09:04:06.315Z,63.71
2022-11-16T09:06:33.429Z,64.06
2022-11-16T09:09:01.164Z,63.74
2022-11-16T09:11:28.577Z,63.78
2022-11-16T09:13:56.317Z,63.47
2022-11-16T09:16:24.262Z,63.38
2022-11-16T09:18:52.051Z,62.96
2022-11-16T09:21:25.467Z,62.37
2022-11-16T09:23:53.858Z,62.98
2022-11-16T09:26:23.228Z,62.66
2022-11-16T09:28:56.037Z,62.53
2022-11-16T09:31:23.984Z,62.79
2022-11-16T09:33:51.334Z,62.79
2022-11-16T09:36:18.577Z,62.22
2022-11-16T09:39:17.854Z,62.53
2022-11-16T09:42:00.891Z,61.62
2022-11-16T09:44:40.081Z,61.33
2022-11-16T09:47:17.708Z,61.51
2022-11-16T09:49:58.180Z,61.64
2022-11-16T09:52:32.828Z,61.55
2022-11-16T09:55:07.126Z,61.60
2022-11-16T09:57:37.989Z,61.70
2022-11-16T10:00:13.870Z,60.95
2022-11-16T10:02:50.416Z,61.01
2022-11-16T10:05:22.686Z,60.76
2022-11-16T10:07:55.162Z,61.04
2022-11-16T10:10:37.953Z,59.46
2022-11-16T10:13:20.085Z,60.88
2022-11-16T10:15:54.237Z,60.82
2022-11-16T10:18:52.806Z,58.60
2022-11-16T10:21:46.217Z,58.63
2022-11-16T10:24:29.045Z,59.96
2022-11-16T10:27:51.867Z,57.62
2022-11-16T10:30:21.999Z,59.40
2022-11-16T10:32:58.751Z,58.93
2022-11-16T10:35:45.781Z,57.33
2022-11-16T10:38:20.396Z,58.35
2022-11-16T10:40:52.554Z,58.72
2022-11-16T10:43:25.729Z,58.95
2022-11-16T10:46:14.699Z,57.80
2022-11-16T10:48:50.625Z,58.59
2022-11-16T10:51:17.991Z,59.27
2022-11-16T10:53:45.132Z,59.38
2022-11-16T10:56:24.142Z,59.19
2022-11-16T10:58:58.723Z,59.05
2022-11-16T11:01:37.783Z,57.97
2022-11-16T11:04:31.737Z,57.54
2022-11-16T11:07:01.442Z,58.97
2022-11-16T11:09:32.918Z,58.66
2022-11-16T11:12:22.601Z,58.79
2022-11-16T11:15:07.143Z,57.53
2022-11-16T11:17:36.346Z,58.61
2022-11-16T11:20:20.133Z,58.81
2022-11-16T11:22:59.681Z,58.23
2022-11-16T11:25:36.931Z,58.89
2022-11-16T11:28:07.692Z,58.97
2022-11-16T11:30:35.722Z,59.26
2022-11-16T11:33:11.548Z,58.25
2022-11-16T11:35:38.686Z,59.03
2022-11-16T11:38:08.371Z,59.19
2022-11-16T11:40:36.277Z,59.29
2022-11-16T11:43:06.156Z,59.05
2022-11-16T11:45:51.836Z,58.05
2022-11-16T11:48:32.282Z,58.50
2022-11-16T11:51:10.728Z,58.91
2022-11-16T11:53:57.795Z,58.31
2022-11-16T11:56:27.315Z,58.73
2022-11-16T11:58:55.704Z,58.86
2022-11-16T12:01:48.327Z,58.51
2022-11-16T12:04:33.209Z,58.19
2022-11-16T12:07:34.567Z,58.23
2022-11-16T12:10:42.496Z,58.33
2022-11-16T12:13:36.438Z,58.40
2022-11-16T12:16:26.324Z,58.79
2022-11-16T12:19:29.764Z,58.81
2022-11-16T12:22:11.257Z,58.64
2022-11-16T12:25:16.321Z,58.26
2022-11-16T12:27:55.251Z,59.29
2022-11-16T12:30:24.217Z,59.37
2022-11-16T12:33:22.546Z,58.77
2022-11-16T12:36:14.932Z,58.98
2022-11-16T12:38:48.087Z,58.73
2022-11-16T12:41:34.552Z,58.88
2022-11-16T12:44:19.679Z,58.99
2022-11-16T12:47:39.332Z,58.79
2022-11-16T12:50:36.832Z,58.34
2022-11-16T12:53:32.147Z,58.62
2022-11-16T12:56:14.392Z,59.18
2022-11-16T12:59:21.838Z,58.85
2022-11-16T13:02:15.076Z,58.84
2022-11-16T13:04:51.218Z,59.44
2022-11-16T13:07:28.126Z,59.09
2022-11-16T13:10:07.757Z,59.14
2022-11-16T13:12:36.633Z,59.41
2022-11-16T13:15:04.720Z,59.55
2022-11-16T13:17:37.248Z,59.26
2022-11-16T13:20:22.326Z,59.18
2022-11-16T13:23:22.879Z,58.78
2022-11-16T13:26:32.905Z,59.00
2022-11-16T13:29:15.070Z,59.47
2022-11-16T13:32:06.237Z,59.21
2022-11-16T13:34:38.139Z,59.13
2022-11-16T13:37:39.475Z,59.21
2022-11-16T13:40:06.640Z,59.53
2022-11-16T13:42:39.192Z,59.50
2022-11-16T13:45:22.475Z,59.31
2022-11-16T13:47:58.009Z,59.52
2022-11-16T13:50:37.657Z,59.50
2022-11-16T13:56:05.988Z,59.86
2022-11-16T13:58:35.738Z,59.88
2022-11-16T14:01:31.273Z,59.61
2022-11-16T14:04:44.213Z,59.76
2022-11-16T14:07:33.208Z,59.67
2022-11-16T14:10:01.333Z,59.98
2022-11-16T14:12:56.298Z,59.36
2022-11-16T14:15:32.148Z,59.78
2022-11-16T14:18:00.587Z,59.41
2022-11-16T14:20:45.021Z,59.23
2022-11-16T14:23:49.010Z,59.51
2022-11-16T14:26:26.027Z,59.31
2022-11-16T14:29:13.705Z,59.66
2022-11-16T14:32:06.920Z,59.75
2022-11-16T14:34:46.002Z,59.65
2022-11-16T14:37:38.902Z,59.64
2022-11-16T14:40:17.621Z,59.86
2022-11-16T14:43:16.437Z,59.58
2022-11-16T14:45:48.589Z,59.82
2022-11-16T14:48:18.627Z,60.00
2022-11-16T14:50:59.262Z,60.31
2022-11-16T14:53:28.571Z,60.45
2022-11-16T14:56:07.527Z,60.26
2022-11-16T14:58:36.455Z,60.11
2022-11-16T15:01:08.161Z,60.41
2022-11-16T15:03:52.487Z,60.39
2022-11-16T15:06:20.669Z,60.61
2022-11-16T15:08:51.959Z,60.54
2022-11-16T15:11:49.426Z,60.15
2022-11-16T15:14:20.381Z,60.19
2022-11-16T15:16:50.772Z,60.52
2022-11-16T15:19:18.215Z,60.49
2022-11-16T15:22:14.128Z,60.47
2022-11-16T15:24:41.536Z,60.64
2022-11-16T15:27:08.636Z,60.57
2022-11-16T15:29:37.010Z,60.82
2022-11-16T15:32:04.589Z,60.68
2022-11-16T15:34:32.492Z,60.18
2022-11-16T15:36:59.886Z,60.67
2022-11-16T15:39:32.529Z,60.32
2022-11-16T15:42:03.794Z,60.77
2022-11-16T15:44:33.157Z,60.91
2022-11-16T15:47:02.489Z,60.66
2022-11-16T15:49:33.595Z,60.67
2022-11-16T15:52:01.643Z,60.96
2022-11-16T15:54:51.936Z,60.80
2022-11-16T15:57:20.724Z,61.09
2022-11-16T15:59:56.801Z,60.66
2022-11-16T16:02:27.772Z,60.71
2022-11-16T16:04:54.967Z,60.92
2022-11-16T16:07:45.946Z,60.57
2022-11-16T16:10:19.364Z,60.52
2022-11-16T16:12:59.180Z,60.45
2022-11-16T16:15:34.083Z,61.10
2022-11-16T16:18:03.207Z,61.03
2022-11-16T16:20:32.616Z,60.78
2022-11-16T16:23:13.358Z,61.06
2022-11-16T16:25:42.031Z,61.08
2022-11-16T16:28:13.013Z,61.29
2022-11-16T16:30:43.273Z,60.50
2022-11-16T16:33:19.816Z,60.81
2022-11-16T16:35:50.559Z,60.91
2022-11-16T16:38:18.030Z,60.95
2022-11-16T16:40:45.267Z,61.18
2022-11-16T16:43:13.111Z,61.02
2022-11-16T16:45:44.358Z,61.04
2022-11-16T16:48:14.443Z,61.11
2022-11-16T16:50:41.642Z,61.09
2022-11-16T16:53:15.290Z,61.31
2022-11-16T16:55:44.330Z,60.89
2022-11-16T16:58:12.877Z,60.89
2022-11-16T17:00:41.595Z,61.14
2022-11-16T17:03:09.198Z,60.84
2022-11-16T17:05:37.685Z,60.63
2022-11-16T17:08:05.219Z,60.98
2022-11-16T17:10:32.533Z,60.81
2022-11-16T17:13:03.121Z,61.22
2022-11-16T17:15:30.255Z,61.18
2022-11-16T17:17:59.237Z,60.99
2022-11-16T17:20:27.626Z,60.80
2022-11-16T17:22:55.237Z,60.95
2022-11-16T17:25:23.044Z,61.46
2022-11-16T17:27:50.095Z,61.20
2022-11-16T17:30:17.325Z,61.60
2022-11-16T17:32:44.992Z,61.70
2022-11-16T17:35:12.227Z,61.57
2022-11-16T17:37:39.954Z,61.62
2022-11-16T17:40:08.409Z,61.83
2022-11-16T17:42:36.219Z,61.50
2022-11-16T17:45:05.088Z,61.53
2022-11-16T17:47:34.102Z,61.89
2022-11-16T17:50:01.930Z,61.59
2022-11-16T17:52:30.730Z,61.77
2022-11-16T17:54:57.637Z,61.86
2022-11-16T17:57:24.594Z,61.52
2022-11-16T17:59:51.693Z,61.91
2022-11-16T18:02:19.271Z,61.60
2022-11-16T18:04:50.886Z,61.97
2022-11-16T18:07:23.629Z,61.97
2022-11-16T18:09:51.205Z,61.79
2022-11-16T18:12:18.657Z,61.72
2022-11-16T18:15:06.429Z,62.04
2022-11-16T18:17:34.906Z,61.98
2022-11-16T18:20:03.814Z,61.80
2022-11-16T18:22:31.626Z,61.90
2022-11-16T18:24:59.165Z,61.97
2022-11-16T18:27:26.421Z,61.94
2022-11-16T18:29:53.577Z,61.77
2022-11-16T18:32:21.227Z,61.93
2022-11-16T18:34:48.249Z,62.14
2022-11-16T18:37:20.919Z,62.22
2022-11-16T18:39:47.880Z,62.37
2022-11-16T18:42:15.005Z,62.39
2022-11-16T18:44:42.062Z,62.53
2022-11-16T18:47:09.212Z,62.61
2022-11-16T18:49:36.205Z,62.48
2022-11-16T18:52:04.101Z,62.66
2022-11-16T18:54:31.001Z,62.58
2022-11-16T18:56:59.370Z,62.90
2022-11-16T18:59:27.258Z,63.04
2022-11-16T19:01:54.469Z,63.18
2022-11-16T19:04:24.963Z,63.34
2022-11-16T19:06:53.303Z,63.13
2022-11-16T19:09:22.262Z,63.09
2022-11-16T19:11:50.939Z,63.54
2022-11-16T19:14:17.910Z,63.23
2022-11-16T19:16:52.503Z,63.43
2022-11-16T19:19:24.656Z,63.51
2022-11-16T19:21:52.944Z,63.58
2022-11-16T19:24:22.267Z,63.46
2022-11-16T19:26:50.003Z,63.43
2022-11-16T19:29:17.616Z,63.53
2022-11-16T19:31:44.895Z,63.69
2022-11-16T19:34:15.338Z,63.77
2022-11-16T19:36:42.610Z,63.52
2022-11-16T19:39:09.611Z,63.84
2022-11-16T19:41:36.723Z,63.80
2022-11-16T19:44:03.704Z,63.24
2022-11-16T19:46:32.876Z,63.61
2022-11-16T19:49:00.630Z,63.77
2022-11-16T19:51:30.242Z,63.27
2022-11-16T19:53:59.507Z,63.65
2022-11-16T19:56:26.809Z,63.67
2022-11-16T19:58:53.983Z,63.93
2022-11-16T20:01:26.241Z,63.74
2022-11-16T20:03:53.669Z,63.99
2022-11-16T20:06:29.404Z,63.97
2022-11-16T20:09:00.902Z,64.16
2022-11-16T20:11:30.643Z,63.73
2022-11-16T20:14:00.912Z,63.86
2022-11-16T20:16:35.371Z,63.81
2022-11-16T20:19:09.707Z,63.85
2022-11-16T20:21:42.007Z,63.98
2022-11-16T20:24:14.219Z,64.21
2022-11-16T20:26:44.139Z,64.33
2022-11-16T20:29:12.658Z,63.81
2022-11-16T20:31:43.457Z,64.12
2022-11-16T20:34:16.559Z,63.98
2022-11-16T20:36:45.988Z,64.13
2022-11-16T20:39:14.928Z,64.32
2022-11-16T20:41:43.007Z,63.66
2022-11-16T20:44:19.098Z,63.81
2022-11-16T20:46:46.195Z,63.78
2022-11-16T20:49:14.726Z,64.13
2022-11-16T20:51:42.030Z,63.84
2022-11-16T20:54:09.252Z,64.03
2022-11-16T20:56:36.256Z,64.17
2022-11-16T20:59:03.576Z,64.10
2022-11-16T21:01:33.526Z,63.99
2022-11-16T21:04:05.577Z,64.21
2022-11-16T21:06:33.227Z,63.78
2022-11-16T21:09:00.665Z,63.89
2022-11-16T21:11:30.048Z,64.22
2022-11-16T21:14:15.901Z,63.77
2022-11-16T21:16:43.333Z,63.47
2022-11-16T21:19:11.918Z,63.75
2022-11-16T21:21:40.585Z,63.86
2022-11-16T21:24:09.355Z,64.11
2022-11-16T21:26:37.447Z,64.14
2022-11-16T21:29:04.767Z,64.15
2022-11-16T21:31:34.840Z,64.07
2022-11-16T21:34:02.200Z,63.92
2022-11-16T21:36:31.129Z,64.11
2022-11-16T21:38:58.586Z,64.28
2022-11-16T21:41:26.729Z,64.21
2022-11-16T21:43:53.935Z,63.86
2022-11-16T21:46:23.357Z,64.18
2022-11-16T21:48:51.861Z,64.30
2022-11-16T21:51:21.237Z,64.19
2022-11-16T21:53:48.488Z,64.32
2022-11-16T21:56:18.211Z,64.14
2022-11-16T21:58:45.867Z,64.47
2022-11-16T22:01:15.907Z,64.53
2022-11-16T22:03:44.849Z,64.42
2022-11-16T22:06:34.589Z,64.47
2022-11-16T22:09:01.652Z,64.62
2022-11-16T22:11:29.028Z,64.17
2022-11-16T22:13:55.960Z,64.00
2022-11-16T22:16:23.567Z,64.05
2022-11-16T22:18:51.068Z,63.95
2022-11-16T22:21:18.022Z,63.89
2022-11-16T22:23:45.144Z,64.08
2022-11-16T22:26:15.052Z,63.88
2022-11-16T22:28:42.351Z,63.46
2022-11-16T22:31:14.498Z,63.78
2022-11-16T22:33:42.167Z,63.92
2022-11-16T22:36:10.721Z,63.71
2022-11-16T22:38:38.018Z,63.98
2022-11-16T22:41:05.685Z,63.91
2022-11-16T22:43:33.296Z,64.13
2022-11-16T22:46:05.030Z,63.94
2022-11-16T22:48:37.406Z,64.04
2022-11-16T22:51:06.978Z,63.58
2022-11-16T22:53:35.210Z,64.24
2022-11-16T22:56:07.091Z,63.82
2022-11-16T22:58:34.914Z,64.11
2022-11-16T23:01:01.869Z,63.86
2022-11-16T23:03:29.816Z,63.83
2022-11-16T23:05:58.000Z,63.68
2022-11-16T23:08:25.059Z,63.86
2022-11-16T23:11:22.673Z,64.04
2022-11-16T23:14:08.970Z,64.13
2022-11-16T23:16:36.866Z,64.41
2022-11-16T23:19:04.065Z,64.16
2022-11-16T23:21:49.479Z,64.20
2022-11-16T23:24:35.094Z,64.44
2022-11-16T23:27:22.835Z,64.31
2022-11-16T23:29:50.100Z,64.16
2022-11-16T23:32:17.261Z,64.27
2022-11-16T23:34:44.172Z,64.64
2022-11-16T23:37:11.212Z,64.53
2022-11-16T23:39:38.166Z,64.41
2022-11-16T23:42:23.562Z,64.66
2022-11-16T23:44:50.514Z,64.94
2022-11-16T23:47:17.459Z,64.30
2022-11-16T23:49:44.593Z,64.66
2022-11-16T23:52:12.257Z,64.82
2022-11-16T23:54:39.196Z,64.81
2022-11-16T23:57:06.521Z,64.91
2022-11-16T23:59:33.752Z,64.72
